sensor_id;sensor_type;location;lat;lon;timestamp;temperature;humidity
62589;DHT22;58504;48.770;9.148;2023-05-15T00:01:55;21.40;55.70
62589;DHT22;58504;48.770;9.148;2023-05-15T00:04:22;21.30;55.60
62589;DHT22;58504;48.770;9.148;2023-05-15T00:06:48;21.30;55.70
62589;DHT22;58504;48.770;9.148;2023-05-15T00:09:16;21.30;55.70
62589;DHT22;58504;48.770;9.148;2023-05-15T00:11:43;21.30;55.80
62589;DHT22;58504;48.770;9.148;2023-05-15T00:14:10;21.30;55.80
62589;DHT22;58504;48.770;9.148;2023-05-15T00:16:37;21.30;55.90
62589;DHT22;58504;48.770;9.148;2023-05-15T00:19:03;21.30;55.90
62589;DHT22;58504;48.770;9.148;2023-05-15T00:21:30;21.30;56.00
62589;DHT22;58504;48.770;9.148;2023-05-15T00:23:57;21.20;55.90
62589;DHT22;58504;48.770;9.148;2023-05-15T00:26:25;21.20;56.00
62589;DHT22;58504;48.770;9.148;2023-05-15T00:28:52;21.20;56.10
62589;DHT22;58504;48.770;9.148;2023-05-15T00:31:19;21.20;56.10
62589;DHT22;58504;48.770;9.148;2023-05-15T00:33:46;21.20;56.20
62589;DHT22;58504;48.770;9.148;2023-05-15T00:36:13;21.20;56.10
62589;DHT22;58504;48.770;9.148;2023-05-15T00:38:39;21.20;56.20
62589;DHT22;58504;48.770;9.148;2023-05-15T00:41:06;21.20;56.20
62589;DHT22;58504;48.770;9.148;2023-05-15T00:43:35;21.20;56.20
62589;DHT22;58504;48.770;9.148;2023-05-15T00:46:05;21.20;56.30
62589;DHT22;58504;48.770;9.148;2023-05-15T00:48:33;21.10;56.20
62589;DHT22;58504;48.770;9.148;2023-05-15T00:50:59;21.10;56.30
62589;DHT22;58504;48.770;9.148;2023-05-15T00:53:27;21.10;56.20
62589;DHT22;58504;48.770;9.148;2023-05-15T00:55:56;21.10;56.20
62589;DHT22;58504;48.770;9.148;2023-05-15T00:58:24;21.10;56.30
62589;DHT22;58504;48.770;9.148;2023-05-15T01:00:53;21.10;56.30
62589;DHT22;58504;48.770;9.148;2023-05-15T01:03:20;21.10;56.30
62589;DHT22;58504;48.770;9.148;2023-05-15T01:05:47;21.10;56.40
62589;DHT22;58504;48.770;9.148;2023-05-15T01:08:19;21.10;56.40
62589;DHT22;58504;48.770;9.148;2023-05-15T01:10:47;21.00;56.30
62589;DHT22;58504;48.770;9.148;2023-05-15T01:13:14;21.00;56.40
62589;DHT22;58504;48.770;9.148;2023-05-15T01:15:41;21.00;56.40
62589;DHT22;58504;48.770;9.148;2023-05-15T01:18:10;21.00;57.00
62589;DHT22;58504;48.770;9.148;2023-05-15T01:20:49;21.00;56.50
62589;DHT22;58504;48.770;9.148;2023-05-15T01:23:34;21.00;56.60
62589;DHT22;58504;48.770;9.148;2023-05-15T01:26:25;20.90;56.50
62589;DHT22;58504;48.770;9.148;2023-05-15T01:28:59;20.90;56.50
62589;DHT22;58504;48.770;9.148;2023-05-15T01:31:30;20.90;56.60
62589;DHT22;58504;48.770;9.148;2023-05-15T01:34:02;20.90;57.10
62589;DHT22;58504;48.770;9.148;2023-05-15T01:36:32;20.90;56.60
62589;DHT22;58504;48.770;9.148;2023-05-15T01:39:03;20.90;56.70
62589;DHT22;58504;48.770;9.148;2023-05-15T01:41:34;20.90;56.70
62589;DHT22;58504;48.770;9.148;2023-05-15T01:44:08;20.90;56.70
62589;DHT22;58504;48.770;9.148;2023-05-15T01:46:38;20.80;56.60
62589;DHT22;58504;48.770;9.148;2023-05-15T01:49:09;20.90;56.80
62589;DHT22;58504;48.770;9.148;2023-05-15T01:51:38;20.80;56.70
62589;DHT22;58504;48.770;9.148;2023-05-15T01:54:07;20.80;56.70
62589;DHT22;58504;48.770;9.148;2023-05-15T01:56:35;20.80;56.70
62589;DHT22;58504;48.770;9.148;2023-05-15T01:59:03;20.80;56.80
62589;DHT22;58504;48.770;9.148;2023-05-15T02:01:31;20.80;56.80
62589;DHT22;58504;48.770;9.148;2023-05-15T02:03:59;20.80;56.80
62589;DHT22;58504;48.770;9.148;2023-05-15T02:06:26;20.80;56.80
62589;DHT22;58504;48.770;9.148;2023-05-15T02:08:55;20.80;56.80
62589;DHT22;58504;48.770;9.148;2023-05-15T02:11:22;20.80;56.90
62589;DHT22;58504;48.770;9.148;2023-05-15T02:13:49;20.80;56.90
62589;DHT22;58504;48.770;9.148;2023-05-15T02:16:18;20.80;56.90
62589;DHT22;58504;48.770;9.148;2023-05-15T02:18:45;20.70;56.90
62589;DHT22;58504;48.770;9.148;2023-05-15T02:21:12;20.80;56.90
62589;DHT22;58504;48.770;9.148;2023-05-15T02:23:38;20.70;56.90
62589;DHT22;58504;48.770;9.148;2023-05-15T02:26:15;20.70;56.90
62589;DHT22;58504;48.770;9.148;2023-05-15T02:28:52;20.70;57.00
62589;DHT22;58504;48.770;9.148;2023-05-15T02:31:27;20.70;57.00
62589;DHT22;58504;48.770;9.148;2023-05-15T02:34:04;20.70;56.90
62589;DHT22;58504;48.770;9.148;2023-05-15T02:36:37;20.70;56.90
62589;DHT22;58504;48.770;9.148;2023-05-15T02:39:06;20.70;57.00
62589;DHT22;58504;48.770;9.148;2023-05-15T02:41:36;20.70;57.00
62589;DHT22;58504;48.770;9.148;2023-05-15T02:44:04;20.70;57.00
62589;DHT22;58504;48.770;9.148;2023-05-15T02:46:33;20.70;57.00
62589;DHT22;58504;48.770;9.148;2023-05-15T02:49:00;20.70;56.90
62589;DHT22;58504;48.770;9.148;2023-05-15T02:51:27;20.70;56.90
62589;DHT22;58504;48.770;9.148;2023-05-15T02:53:54;20.70;57.00
62589;DHT22;58504;48.770;9.148;2023-05-15T02:56:21;20.70;56.90
62589;DHT22;58504;48.770;9.148;2023-05-15T02:58:48;20.70;56.90
62589;DHT22;58504;48.770;9.148;2023-05-15T03:01:15;20.70;57.00
62589;DHT22;58504;48.770;9.148;2023-05-15T03:03:43;20.70;57.00
62589;DHT22;58504;48.770;9.148;2023-05-15T03:06:10;20.70;57.00
62589;DHT22;58504;48.770;9.148;2023-05-15T03:08:36;20.70;57.00
62589;DHT22;58504;48.770;9.148;2023-05-15T03:11:03;20.70;57.00
62589;DHT22;58504;48.770;9.148;2023-05-15T03:13:30;20.60;56.90
62589;DHT22;58504;48.770;9.148;2023-05-15T03:15:57;20.70;56.90
62589;DHT22;58504;48.770;9.148;2023-05-15T03:18:23;20.60;56.90
62589;DHT22;58504;48.770;9.148;2023-05-15T03:20:52;20.60;56.90
62589;DHT22;58504;48.770;9.148;2023-05-15T03:23:19;20.60;56.90
62589;DHT22;58504;48.770;9.148;2023-05-15T03:25:46;20.60;56.90
62589;DHT22;58504;48.770;9.148;2023-05-15T03:28:13;20.60;56.90
62589;DHT22;58504;48.770;9.148;2023-05-15T03:30:42;20.60;56.90
62589;DHT22;58504;48.770;9.148;2023-05-15T03:33:09;20.60;56.90
62589;DHT22;58504;48.770;9.148;2023-05-15T03:35:36;20.60;57.00
62589;DHT22;58504;48.770;9.148;2023-05-15T03:38:04;20.60;57.00
62589;DHT22;58504;48.770;9.148;2023-05-15T03:40:31;20.60;57.00
62589;DHT22;58504;48.770;9.148;2023-05-15T03:42:57;20.60;57.00
62589;DHT22;58504;48.770;9.148;2023-05-15T03:45:24;20.60;57.00
62589;DHT22;58504;48.770;9.148;2023-05-15T03:47:51;20.60;57.00
62589;DHT22;58504;48.770;9.148;2023-05-15T03:50:19;20.60;57.00
62589;DHT22;58504;48.770;9.148;2023-05-15T03:52:46;20.60;57.00
62589;DHT22;58504;48.770;9.148;2023-05-15T03:55:14;20.60;57.00
62589;DHT22;58504;48.770;9.148;2023-05-15T03:57:41;20.60;57.00
62589;DHT22;58504;48.770;9.148;2023-05-15T04:00:08;20.60;57.00
62589;DHT22;58504;48.770;9.148;2023-05-15T04:02:35;20.60;57.00
62589;DHT22;58504;48.770;9.148;2023-05-15T04:05:02;20.60;57.00
62589;DHT22;58504;48.770;9.148;2023-05-15T04:07:31;20.60;57.00
62589;DHT22;58504;48.770;9.148;2023-05-15T04:09:57;20.60;57.00
62589;DHT22;58504;48.770;9.148;2023-05-15T04:12:27;20.60;57.00
62589;DHT22;58504;48.770;9.148;2023-05-15T04:14:55;20.60;56.90
62589;DHT22;58504;48.770;9.148;2023-05-15T04:17:21;20.60;56.90
62589;DHT22;58504;48.770;9.148;2023-05-15T04:19:48;20.60;56.90
62589;DHT22;58504;48.770;9.148;2023-05-15T04:22:15;20.60;56.90
62589;DHT22;58504;48.770;9.148;2023-05-15T04:24:42;20.60;56.90
62589;DHT22;58504;48.770;9.148;2023-05-15T04:27:08;20.70;56.90
62589;DHT22;58504;48.770;9.148;2023-05-15T04:29:36;20.60;56.90
62589;DHT22;58504;48.770;9.148;2023-05-15T04:32:03;20.60;56.80
62589;DHT22;58504;48.770;9.148;2023-05-15T04:34:30;20.60;56.80
62589;DHT22;58504;48.770;9.148;2023-05-15T04:36:58;20.60;57.30
62589;DHT22;58504;48.770;9.148;2023-05-15T04:39:25;20.60;56.70
62589;DHT22;58504;48.770;9.148;2023-05-15T04:41:52;20.70;56.60
62589;DHT22;58504;48.770;9.148;2023-05-15T04:44:18;20.80;56.50
62589;DHT22;58504;48.770;9.148;2023-05-15T04:46:47;20.90;56.40
62589;DHT22;58504;48.770;9.148;2023-05-15T04:49:13;21.10;56.40
62589;DHT22;58504;48.770;9.148;2023-05-15T04:51:40;21.20;56.10
62589;DHT22;58504;48.770;9.148;2023-05-15T04:54:07;21.30;55.80
62589;DHT22;58504;48.770;9.148;2023-05-15T04:56:34;21.40;55.50
62589;DHT22;58504;48.770;9.148;2023-05-15T04:59:01;21.50;55.20
62589;DHT22;58504;48.770;9.148;2023-05-15T05:01:28;21.70;55.00
62589;DHT22;58504;48.770;9.148;2023-05-15T05:03:56;21.80;54.80
62589;DHT22;58504;48.770;9.148;2023-05-15T05:06:23;21.90;54.60
62589;DHT22;58504;48.770;9.148;2023-05-15T05:08:49;22.00;54.50
62589;DHT22;58504;48.770;9.148;2023-05-15T05:11:16;22.10;54.30
62589;DHT22;58504;48.770;9.148;2023-05-15T05:13:43;22.20;54.10
62589;DHT22;58504;48.770;9.148;2023-05-15T05:16:09;22.20;53.90
62589;DHT22;58504;48.770;9.148;2023-05-15T05:18:36;22.30;53.80
62589;DHT22;58504;48.770;9.148;2023-05-15T05:21:04;22.40;53.70
62589;DHT22;58504;48.770;9.148;2023-05-15T05:23:31;22.40;53.50
62589;DHT22;58504;48.770;9.148;2023-05-15T05:25:58;22.50;53.30
62589;DHT22;58504;48.770;9.148;2023-05-15T05:28:25;22.60;53.20
62589;DHT22;58504;48.770;9.148;2023-05-15T05:30:52;22.60;53.20
62589;DHT22;58504;48.770;9.148;2023-05-15T05:33:19;22.60;53.00
62589;DHT22;58504;48.770;9.148;2023-05-15T05:35:46;22.70;53.00
62589;DHT22;58504;48.770;9.148;2023-05-15T05:38:14;22.70;52.90
62589;DHT22;58504;48.770;9.148;2023-05-15T05:40:40;22.80;52.90
62589;DHT22;58504;48.770;9.148;2023-05-15T05:43:08;22.80;52.80
62589;DHT22;58504;48.770;9.148;2023-05-15T05:45:35;22.80;52.80
62589;DHT22;58504;48.770;9.148;2023-05-15T05:48:01;22.90;52.80
62589;DHT22;58504;48.770;9.148;2023-05-15T05:50:28;22.90;52.70
62589;DHT22;58504;48.770;9.148;2023-05-15T05:52:55;23.00;52.60
62589;DHT22;58504;48.770;9.148;2023-05-15T05:55:23;23.00;52.50
62589;DHT22;58504;48.770;9.148;2023-05-15T05:57:50;23.10;52.50
62589;DHT22;58504;48.770;9.148;2023-05-15T06:00:18;23.10;52.40
62589;DHT22;58504;48.770;9.148;2023-05-15T06:02:45;23.10;52.40
62589;DHT22;58504;48.770;9.148;2023-05-15T06:05:12;23.20;52.40
62589;DHT22;58504;48.770;9.148;2023-05-15T06:07:39;23.10;52.30
62589;DHT22;58504;48.770;9.148;2023-05-15T06:10:15;23.10;52.30
62589;DHT22;58504;48.770;9.148;2023-05-15T06:12:50;23.10;52.30
62589;DHT22;58504;48.770;9.148;2023-05-15T06:15:23;23.10;52.30
62589;DHT22;58504;48.770;9.148;2023-05-15T06:17:58;23.10;52.10
62589;DHT22;58504;48.770;9.148;2023-05-15T06:20:25;23.10;51.30
62589;DHT22;58504;48.770;9.148;2023-05-15T06:22:51;23.10;50.60
62589;DHT22;58504;48.770;9.148;2023-05-15T06:25:18;23.10;50.30
62589;DHT22;58504;48.770;9.148;2023-05-15T06:27:45;23.10;50.20
62589;DHT22;58504;48.770;9.148;2023-05-15T06:30:14;23.10;50.10
62589;DHT22;58504;48.770;9.148;2023-05-15T06:32:41;23.10;50.50
62589;DHT22;58504;48.770;9.148;2023-05-15T06:35:08;23.10;50.90
62589;DHT22;58504;48.770;9.148;2023-05-15T06:37:35;23.10;51.20
62589;DHT22;58504;48.770;9.148;2023-05-15T06:40:03;23.10;51.30
62589;DHT22;58504;48.770;9.148;2023-05-15T06:42:30;23.20;51.50
62589;DHT22;58504;48.770;9.148;2023-05-15T06:44:56;23.20;51.60
62589;DHT22;58504;48.770;9.148;2023-05-15T06:47:25;23.30;51.90
62589;DHT22;58504;48.770;9.148;2023-05-15T06:49:52;23.40;52.00
62589;DHT22;58504;48.770;9.148;2023-05-15T06:52:19;23.50;52.00
62589;DHT22;58504;48.770;9.148;2023-05-15T06:54:46;23.50;51.90
62589;DHT22;58504;48.770;9.148;2023-05-15T06:57:14;23.60;51.90
62589;DHT22;58504;48.770;9.148;2023-05-15T06:59:40;23.60;51.80
62589;DHT22;58504;48.770;9.148;2023-05-15T07:02:07;23.70;51.90
62589;DHT22;58504;48.770;9.148;2023-05-15T07:04:35;23.80;51.70
62589;DHT22;58504;48.770;9.148;2023-05-15T07:07:02;23.80;51.70
62589;DHT22;58504;48.770;9.148;2023-05-15T07:09:29;23.90;51.60
62589;DHT22;58504;48.770;9.148;2023-05-15T07:11:56;24.00;51.40
62589;DHT22;58504;48.770;9.148;2023-05-15T07:14:23;24.00;51.30
62589;DHT22;58504;48.770;9.148;2023-05-15T07:16:50;24.10;51.20
62589;DHT22;58504;48.770;9.148;2023-05-15T07:19:17;24.20;51.20
62589;DHT22;58504;48.770;9.148;2023-05-15T07:21:46;24.20;51.10
62589;DHT22;58504;48.770;9.148;2023-05-15T07:24:13;24.30;51.10
62589;DHT22;58504;48.770;9.148;2023-05-15T07:26:40;24.40;51.00
62589;DHT22;58504;48.770;9.148;2023-05-15T07:29:07;23.70;45.10
62589;DHT22;58504;48.770;9.148;2023-05-15T07:31:34;22.80;47.10
62589;DHT22;58504;48.770;9.148;2023-05-15T07:34:00;22.60;47.60
62589;DHT22;58504;48.770;9.148;2023-05-15T07:36:27;22.40;48.90
62589;DHT22;58504;48.770;9.148;2023-05-15T07:38:55;22.60;49.30
62589;DHT22;58504;48.770;9.148;2023-05-15T07:41:22;22.50;48.90
62589;DHT22;58504;48.770;9.148;2023-05-15T07:43:49;22.30;48.70
62589;DHT22;58504;48.770;9.148;2023-05-15T07:46:15;22.60;49.70
62589;DHT22;58504;48.770;9.148;2023-05-15T07:48:42;22.90;51.30
62589;DHT22;58504;48.770;9.148;2023-05-15T07:51:09;23.20;51.70
62589;DHT22;58504;48.770;9.148;2023-05-15T07:53:36;23.40;51.40
62589;DHT22;58504;48.770;9.148;2023-05-15T07:56:04;23.60;51.00
62589;DHT22;58504;48.770;9.148;2023-05-15T07:58:31;24.00;50.80
62589;DHT22;58504;48.770;9.148;2023-05-15T08:00:59;24.30;50.40
62589;DHT22;58504;48.770;9.148;2023-05-15T08:03:26;24.50;49.90
62589;DHT22;58504;48.770;9.148;2023-05-15T08:05:53;24.70;49.60
62589;DHT22;58504;48.770;9.148;2023-05-15T08:08:20;24.90;49.40
62589;DHT22;58504;48.770;9.148;2023-05-15T08:10:47;25.00;49.10
62589;DHT22;58504;48.770;9.148;2023-05-15T08:13:15;25.20;48.90
62589;DHT22;58504;48.770;9.148;2023-05-15T08:15:42;25.40;48.50
62589;DHT22;58504;48.770;9.148;2023-05-15T08:18:09;25.50;48.20
62589;DHT22;58504;48.770;9.148;2023-05-15T08:20:36;25.70;48.00
62589;DHT22;58504;48.770;9.148;2023-05-15T08:23:03;25.80;47.60
62589;DHT22;58504;48.770;9.148;2023-05-15T08:25:30;26.00;47.30
62589;DHT22;58504;48.770;9.148;2023-05-15T08:27:56;26.20;46.80
62589;DHT22;58504;48.770;9.148;2023-05-15T08:30:25;26.40;46.40
62589;DHT22;58504;48.770;9.148;2023-05-15T08:32:52;26.60;46.10
62589;DHT22;58504;48.770;9.148;2023-05-15T08:35:18;26.70;45.80
62589;DHT22;58504;48.770;9.148;2023-05-15T08:37:45;27.00;45.40
62589;DHT22;58504;48.770;9.148;2023-05-15T08:40:12;27.20;44.90
62589;DHT22;58504;48.770;9.148;2023-05-15T08:42:43;27.50;44.30
62589;DHT22;58504;48.770;9.148;2023-05-15T08:45:12;28.00;43.70
62589;DHT22;58504;48.770;9.148;2023-05-15T08:47:41;28.50;42.70
62589;DHT22;58504;48.770;9.148;2023-05-15T08:50:10;28.70;42.40
62589;DHT22;58504;48.770;9.148;2023-05-15T08:52:40;29.10;41.70
62589;DHT22;58504;48.770;9.148;2023-05-15T08:55:08;29.60;41.00
62589;DHT22;58504;48.770;9.148;2023-05-15T08:57:36;30.00;40.20
62589;DHT22;58504;48.770;9.148;2023-05-15T09:00:04;30.20;39.60
62589;DHT22;58504;48.770;9.148;2023-05-15T09:02:33;30.40;39.10
62589;DHT22;58504;48.770;9.148;2023-05-15T09:05:02;30.60;38.90
62589;DHT22;58504;48.770;9.148;2023-05-15T09:07:29;30.50;38.70
62589;DHT22;58504;48.770;9.148;2023-05-15T09:09:56;30.00;39.10
62589;DHT22;58504;48.770;9.148;2023-05-15T09:12:24;29.90;39.80
62589;DHT22;58504;48.770;9.148;2023-05-15T09:14:51;29.90;39.90
62589;DHT22;58504;48.770;9.148;2023-05-15T09:17:18;29.90;39.80
62589;DHT22;58504;48.770;9.148;2023-05-15T09:19:44;29.90;39.70
62589;DHT22;58504;48.770;9.148;2023-05-15T09:22:18;29.80;39.90
62589;DHT22;58504;48.770;9.148;2023-05-15T09:24:48;29.70;40.00
62589;DHT22;58504;48.770;9.148;2023-05-15T09:27:18;29.60;40.20
62589;DHT22;58504;48.770;9.148;2023-05-15T09:29:45;29.30;40.60
62589;DHT22;58504;48.770;9.148;2023-05-15T09:32:13;28.90;41.10
62589;DHT22;58504;48.770;9.148;2023-05-15T09:34:41;28.50;41.80
62589;DHT22;58504;48.770;9.148;2023-05-15T09:37:09;28.10;42.50
62589;DHT22;58504;48.770;9.148;2023-05-15T09:39:42;27.80;43.40
62589;DHT22;58504;48.770;9.148;2023-05-15T09:42:10;27.70;44.00
62589;DHT22;58504;48.770;9.148;2023-05-15T09:44:40;27.60;44.20
62589;DHT22;58504;48.770;9.148;2023-05-15T09:47:08;27.60;44.50
62589;DHT22;58504;48.770;9.148;2023-05-15T09:49:35;27.60;44.40
62589;DHT22;58504;48.770;9.148;2023-05-15T09:52:02;27.70;44.40
62589;DHT22;58504;48.770;9.148;2023-05-15T09:54:29;27.70;44.30
62589;DHT22;58504;48.770;9.148;2023-05-15T09:57:07;27.60;43.80
62589;DHT22;58504;48.770;9.148;2023-05-15T09:59:34;27.60;44.10
62589;DHT22;58504;48.770;9.148;2023-05-15T10:02:00;27.60;44.20
62589;DHT22;58504;48.770;9.148;2023-05-15T10:04:33;27.60;44.20
62589;DHT22;58504;48.770;9.148;2023-05-15T10:07:00;27.60;44.20
62589;DHT22;58504;48.770;9.148;2023-05-15T10:09:29;27.60;44.10
62589;DHT22;58504;48.770;9.148;2023-05-15T10:11:58;27.60;44.00
62589;DHT22;58504;48.770;9.148;2023-05-15T10:14:25;27.70;44.00
62589;DHT22;58504;48.770;9.148;2023-05-15T10:16:54;27.60;43.90
62589;DHT22;58504;48.770;9.148;2023-05-15T10:19:22;27.60;44.00
62589;DHT22;58504;48.770;9.148;2023-05-15T10:21:52;27.50;44.10
62589;DHT22;58504;48.770;9.148;2023-05-15T10:24:22;27.40;44.30
62589;DHT22;58504;48.770;9.148;2023-05-15T10:26:51;27.30;44.50
62589;DHT22;58504;48.770;9.148;2023-05-15T10:29:21;27.20;44.60
62589;DHT22;58504;48.770;9.148;2023-05-15T10:31:50;27.10;44.80
62589;DHT22;58504;48.770;9.148;2023-05-15T10:34:17;26.90;45.10
62589;DHT22;58504;48.770;9.148;2023-05-15T10:36:45;26.60;45.50
62589;DHT22;58504;48.770;9.148;2023-05-15T10:39:15;26.50;46.00
62589;DHT22;58504;48.770;9.148;2023-05-15T10:41:44;26.30;46.40
62589;DHT22;58504;48.770;9.148;2023-05-15T10:44:13;26.20;46.80
62589;DHT22;58504;48.770;9.148;2023-05-15T10:46:43;26.00;47.10
62589;DHT22;58504;48.770;9.148;2023-05-15T10:49:10;25.80;47.30
62589;DHT22;58504;48.770;9.148;2023-05-15T10:51:36;25.70;47.70
62589;DHT22;58504;48.770;9.148;2023-05-15T10:54:05;25.50;48.00
62589;DHT22;58504;48.770;9.148;2023-05-15T10:56:32;25.30;48.30
62589;DHT22;58504;48.770;9.148;2023-05-15T10:59:04;25.30;48.60
62589;DHT22;58504;48.770;9.148;2023-05-15T11:01:33;25.20;48.80
62589;DHT22;58504;48.770;9.148;2023-05-15T11:04:10;25.10;48.90
62589;DHT22;58504;48.770;9.148;2023-05-15T11:06:38;25.10;49.00
62589;DHT22;58504;48.770;9.148;2023-05-15T11:09:33;25.00;49.10
62589;DHT22;58504;48.770;9.148;2023-05-15T11:12:01;25.00;49.20
62589;DHT22;58504;48.770;9.148;2023-05-15T11:14:29;25.00;49.20
62589;DHT22;58504;48.770;9.148;2023-05-15T11:17:00;25.00;49.40
62589;DHT22;58504;48.770;9.148;2023-05-15T11:19:32;25.00;49.60
62589;DHT22;58504;48.770;9.148;2023-05-15T11:22:00;25.00;50.20
62589;DHT22;58504;48.770;9.148;2023-05-15T11:24:28;24.90;49.90
62589;DHT22;58504;48.770;9.148;2023-05-15T11:27:02;24.90;50.10
62589;DHT22;58504;48.770;9.148;2023-05-15T11:29:29;24.90;50.30
62589;DHT22;58504;48.770;9.148;2023-05-15T11:31:56;24.90;50.30
62589;DHT22;58504;48.770;9.148;2023-05-15T11:34:32;24.90;50.50
62589;DHT22;58504;48.770;9.148;2023-05-15T11:37:00;24.90;50.60
62589;DHT22;58504;48.770;9.148;2023-05-15T11:39:27;24.90;50.80
62589;DHT22;58504;48.770;9.148;2023-05-15T11:41:54;24.80;51.00
62589;DHT22;58504;48.770;9.148;2023-05-15T11:44:22;24.80;51.30
62589;DHT22;58504;48.770;9.148;2023-05-15T11:46:49;24.80;51.70
62589;DHT22;58504;48.770;9.148;2023-05-15T11:49:18;24.80;52.00
62589;DHT22;58504;48.770;9.148;2023-05-15T11:51:47;24.80;52.10
62589;DHT22;58504;48.770;9.148;2023-05-15T11:54:14;24.80;52.30
62589;DHT22;58504;48.770;9.148;2023-05-15T11:56:43;24.80;52.60
62589;DHT22;58504;48.770;9.148;2023-05-15T11:59:12;24.80;52.50
62589;DHT22;58504;48.770;9.148;2023-05-15T12:01:41;24.70;52.90
62589;DHT22;58504;48.770;9.148;2023-05-15T12:04:12;24.70;53.20
62589;DHT22;58504;48.770;9.148;2023-05-15T12:06:39;24.60;53.10
62589;DHT22;58504;48.770;9.148;2023-05-15T12:09:13;24.70;53.30
62589;DHT22;58504;48.770;9.148;2023-05-15T12:11:40;24.70;53.40
62589;DHT22;58504;48.770;9.148;2023-05-15T12:14:10;24.70;53.70
62589;DHT22;58504;48.770;9.148;2023-05-15T12:16:37;24.60;53.70
62589;DHT22;58504;48.770;9.148;2023-05-15T12:19:04;24.60;53.50
62589;DHT22;58504;48.770;9.148;2023-05-15T12:21:31;24.50;53.20
62589;DHT22;58504;48.770;9.148;2023-05-15T12:23:57;24.50;53.20
62589;DHT22;58504;48.770;9.148;2023-05-15T12:26:27;24.50;53.30
62589;DHT22;58504;48.770;9.148;2023-05-15T12:28:54;24.50;53.50
62589;DHT22;58504;48.770;9.148;2023-05-15T12:31:22;24.40;53.40
62589;DHT22;58504;48.770;9.148;2023-05-15T12:33:48;24.40;53.60
62589;DHT22;58504;48.770;9.148;2023-05-15T12:36:19;24.30;53.50
62589;DHT22;58504;48.770;9.148;2023-05-15T12:38:46;24.40;53.70
62589;DHT22;58504;48.770;9.148;2023-05-15T12:41:13;24.40;53.80
62589;DHT22;58504;48.770;9.148;2023-05-15T12:43:41;24.40;53.70
62589;DHT22;58504;48.770;9.148;2023-05-15T12:46:08;24.40;53.60
62589;DHT22;58504;48.770;9.148;2023-05-15T12:48:35;24.50;53.70
62589;DHT22;58504;48.770;9.148;2023-05-15T12:51:05;24.50;53.60
62589;DHT22;58504;48.770;9.148;2023-05-15T12:53:32;24.50;53.60
62589;DHT22;58504;48.770;9.148;2023-05-15T12:55:59;24.60;53.50
62589;DHT22;58504;48.770;9.148;2023-05-15T12:58:27;24.60;53.30
62589;DHT22;58504;48.770;9.148;2023-05-15T13:00:55;24.70;53.30
62589;DHT22;58504;48.770;9.148;2023-05-15T13:03:23;24.70;53.20
62589;DHT22;58504;48.770;9.148;2023-05-15T13:05:52;24.80;53.10
62589;DHT22;58504;48.770;9.148;2023-05-15T13:08:19;24.80;53.00
62589;DHT22;58504;48.770;9.148;2023-05-15T13:10:46;24.80;52.80
62589;DHT22;58504;48.770;9.148;2023-05-15T13:13:13;24.80;52.60
62589;DHT22;58504;48.770;9.148;2023-05-15T13:15:42;24.90;52.70
62589;DHT22;58504;48.770;9.148;2023-05-15T13:18:11;24.90;52.70
62589;DHT22;58504;48.770;9.148;2023-05-15T13:20:40;24.90;52.60
62589;DHT22;58504;48.770;9.148;2023-05-15T13:23:07;24.90;52.40
62589;DHT22;58504;48.770;9.148;2023-05-15T13:25:35;24.90;52.40
62589;DHT22;58504;48.770;9.148;2023-05-15T13:28:03;24.90;52.20
62589;DHT22;58504;48.770;9.148;2023-05-15T13:30:31;24.90;52.00
62589;DHT22;58504;48.770;9.148;2023-05-15T13:32:58;25.00;52.10
62589;DHT22;58504;48.770;9.148;2023-05-15T13:35:27;25.00;52.00
62589;DHT22;58504;48.770;9.148;2023-05-15T13:37:53;25.00;51.90
62589;DHT22;58504;48.770;9.148;2023-05-15T13:40:21;25.00;52.00
62589;DHT22;58504;48.770;9.148;2023-05-15T13:42:48;24.90;52.00
62589;DHT22;58504;48.770;9.148;2023-05-15T13:45:15;24.90;52.00
62589;DHT22;58504;48.770;9.148;2023-05-15T13:47:43;24.90;51.90
62589;DHT22;58504;48.770;9.148;2023-05-15T13:50:12;24.90;51.90
62589;DHT22;58504;48.770;9.148;2023-05-15T13:52:42;24.90;52.00
62589;DHT22;58504;48.770;9.148;2023-05-15T13:55:09;24.90;52.00
62589;DHT22;58504;48.770;9.148;2023-05-15T13:57:36;24.80;52.00
62589;DHT22;58504;48.770;9.148;2023-05-15T14:00:04;24.80;52.30
62589;DHT22;58504;48.770;9.148;2023-05-15T14:02:32;24.70;52.40
62589;DHT22;58504;48.770;9.148;2023-05-15T14:04:58;24.70;52.50
62589;DHT22;58504;48.770;9.148;2023-05-15T14:07:25;24.60;52.60
62589;DHT22;58504;48.770;9.148;2023-05-15T14:09:53;24.60;52.70
62589;DHT22;58504;48.770;9.148;2023-05-15T14:12:20;24.50;52.70
62589;DHT22;58504;48.770;9.148;2023-05-15T14:14:47;24.60;52.70
62589;DHT22;58504;48.770;9.148;2023-05-15T14:17:14;24.60;52.70
62589;DHT22;58504;48.770;9.148;2023-05-15T14:19:41;24.50;52.80
62589;DHT22;58504;48.770;9.148;2023-05-15T14:22:08;24.50;52.80
62589;DHT22;58504;48.770;9.148;2023-05-15T14:24:35;24.40;52.90
62589;DHT22;58504;48.770;9.148;2023-05-15T14:27:04;24.40;52.80
62589;DHT22;58504;48.770;9.148;2023-05-15T14:29:31;24.40;52.90
62589;DHT22;58504;48.770;9.148;2023-05-15T14:31:57;24.40;53.50
62589;DHT22;58504;48.770;9.148;2023-05-15T14:34:24;24.30;53.10
62589;DHT22;58504;48.770;9.148;2023-05-15T14:36:51;24.30;53.20
62589;DHT22;58504;48.770;9.148;2023-05-15T14:39:18;24.30;53.20
62589;DHT22;58504;48.770;9.148;2023-05-15T14:41:45;24.20;53.20
62589;DHT22;58504;48.770;9.148;2023-05-15T14:44:14;24.30;53.40
62589;DHT22;58504;48.770;9.148;2023-05-15T14:46:41;24.20;53.20
62589;DHT22;58504;48.770;9.148;2023-05-15T14:49:08;24.10;52.60
62589;DHT22;58504;48.770;9.148;2023-05-15T14:51:35;24.00;49.00
62589;DHT22;58504;48.770;9.148;2023-05-15T14:54:02;23.90;47.20
62589;DHT22;58504;48.770;9.148;2023-05-15T14:56:29;23.60;46.60
62589;DHT22;58504;48.770;9.148;2023-05-15T14:58:56;23.60;47.40
62589;DHT22;58504;48.770;9.148;2023-05-15T15:01:24;23.60;47.30
62589;DHT22;58504;48.770;9.148;2023-05-15T15:03:51;23.60;47.20
62589;DHT22;58504;48.770;9.148;2023-05-15T15:06:17;23.60;46.80
62589;DHT22;58504;48.770;9.148;2023-05-15T15:08:44;23.60;46.30
62589;DHT22;58504;48.770;9.148;2023-05-15T15:11:11;23.60;46.60
62589;DHT22;58504;48.770;9.148;2023-05-15T15:13:38;23.60;46.30
62589;DHT22;58504;48.770;9.148;2023-05-15T15:16:04;23.50;45.60
62589;DHT22;58504;48.770;9.148;2023-05-15T15:18:33;23.20;43.90
62589;DHT22;58504;48.770;9.148;2023-05-15T15:21:01;23.10;44.50
62589;DHT22;58504;48.770;9.148;2023-05-15T15:23:28;23.10;45.10
62589;DHT22;58504;48.770;9.148;2023-05-15T15:25:55;23.10;45.70
62589;DHT22;58504;48.770;9.148;2023-05-15T15:28:22;23.20;46.20
62589;DHT22;58504;48.770;9.148;2023-05-15T15:30:49;23.20;47.30
62589;DHT22;58504;48.770;9.148;2023-05-15T15:33:15;23.20;48.80
62589;DHT22;58504;48.770;9.148;2023-05-15T15:35:43;23.30;50.60